DAL8635 PHOG-EGLL
Flight info
| Callsign | DAL8635 |
|---|---|
| Flight time | N/A |
| Altitude | 33000 |
| Route | STAIT V17 SERYU R463 APACK DCT 29N155W/N0493F340 35N155W 40N154W 46N154W/N0495F360 52N153W DCT ODK/N0494F370 J125 TED/N0492F360 J115 FAI/N0493F370 J120 FYU J160 ADREW DCT 73N130W 77N113W 79N086W/M084F390 78N057W 75N035W 71N023W DCT THUNE DCT 63N012W/N0492F410 DCT AKIVO DCT OBUBA DCT MAC DCT INKOB Q39 DANDI UL28 PENIL L10 WAL UY53 NUGRA |
| Aircraft | A359/H-SDE2E3GHIJ3J4J5LM1ORWXY/LB1D1 |
Departure
| Time | 2026-05-09 04:07 |
|---|---|
| Airport | Kahului International Airport (PHOG) |
Arrival
| Time | N/A |
|---|---|
| Airport | London Heathrow Airport (EGLL) |
| Time | Latitude | Longitude | Altitude | Speed | Heading |
|---|---|---|---|---|---|
| 2026-05-09 02:57 | 20.89189 | -156.43721 | 38 ft | 0 kts | 283° |
| 2026-05-09 03:59 | 20.89188 | -156.43717 | 38 ft | 3 kts | 282° |
| 2026-05-09 04:00 | 20.89183 | -156.43698 | 38 ft | 3 kts | 302° |
| 2026-05-09 04:00 | 20.89170 | -156.43673 | 37 ft | 4 kts | 292° |
| 2026-05-09 04:00 | 20.89162 | -156.43645 | 38 ft | 4 kts | 277° |
| 2026-05-09 04:00 | 20.89162 | -156.43618 | 37 ft | 4 kts | 249° |
| 2026-05-09 04:01 | 20.89171 | -156.43602 | 33 ft | 0 kts | 214° |
| 2026-05-09 04:01 | 20.89172 | -156.43602 | 33 ft | 0 kts | 214° |
| 2026-05-09 04:03 | 20.89164 | -156.43607 | 37 ft | 6 kts | 214° |
| 2026-05-09 04:04 | 20.89119 | -156.43640 | 38 ft | 12 kts | 215° |
| 2026-05-09 04:04 | 20.89022 | -156.43712 | 38 ft | 22 kts | 214° |
| 2026-05-09 04:04 | 20.88918 | -156.43789 | 38 ft | 0 kts | 215° |
| 2026-05-09 04:05 | 20.88911 | -156.43803 | 38 ft | 9 kts | 247° |
| 2026-05-09 04:05 | 20.88971 | -156.43798 | 38 ft | 16 kts | 65° |
| 2026-05-09 04:05 | 20.88974 | -156.43703 | 38 ft | 6 kts | 111° |
| 2026-05-09 04:05 | 20.88954 | -156.43667 | 38 ft | 8 kts | 126° |
| 2026-05-09 04:06 | 20.88940 | -156.43645 | 38 ft | 3 kts | 126° |
| 2026-05-09 04:06 | 20.88936 | -156.43618 | 38 ft | 4 kts | 66° |
| 2026-05-09 04:06 | 20.88949 | -156.43607 | 38 ft | 0 kts | 37° |
| 2026-05-09 04:07 | 20.88987 | -156.43577 | 38 ft | 33 kts | 36° |
| 2026-05-09 04:07 | 20.89388 | -156.43280 | 39 ft | 105 kts | 35° |
| 2026-05-09 04:07 | 20.90174 | -156.42701 | 48 ft | 166 kts | 34° |
| 2026-05-09 04:07 | 20.91065 | -156.41960 | 910 ft | 155 kts | 37° |
| 2026-05-09 04:08 | 20.91845 | -156.41209 | 1770 ft | 150 kts | 43° |
| 2026-05-09 04:08 | 20.92559 | -156.40416 | 2364 ft | 147 kts | 44° |
| 2026-05-09 04:08 | 20.93399 | -156.39782 | 2648 ft | 150 kts | 28° |
| 2026-05-09 04:08 | 20.94375 | -156.39263 | 2806 ft | 163 kts | 28° |
| 2026-05-09 04:09 | 20.95404 | -156.38641 | 2972 ft | 176 kts | 32° |
| 2026-05-09 04:09 | 20.96506 | -156.37949 | 3136 ft | 192 kts | 26° |
| 2026-05-09 04:09 | 20.97858 | -156.37609 | 3299 ft | 210 kts | 2° |
| 2026-05-09 04:09 | 20.99360 | -156.37741 | 3541 ft | 224 kts | 352° |
| 2026-05-09 04:10 | 21.00938 | -156.38136 | 3718 ft | 241 kts | 346° |
| 2026-05-09 04:10 | 21.02586 | -156.38699 | 3933 ft | 255 kts | 343° |
| 2026-05-09 04:10 | 21.04285 | -156.39336 | 4337 ft | 262 kts | 342° |
| 2026-05-09 04:10 | 21.06021 | -156.39987 | 4767 ft | 268 kts | 342° |
| 2026-05-09 04:11 | 21.07800 | -156.40633 | 5196 ft | 273 kts | 342° |
| 2026-05-09 04:11 | 21.09618 | -156.41269 | 5688 ft | 276 kts | 342° |
| 2026-05-09 04:11 | 21.11458 | -156.41895 | 6184 ft | 280 kts | 342° |
| 2026-05-09 04:11 | 21.13331 | -156.42520 | 6653 ft | 284 kts | 342° |
| 2026-05-09 04:12 | 21.15223 | -156.43146 | 7192 ft | 286 kts | 342° |
| 2026-05-09 04:12 | 21.17138 | -156.43778 | 7663 ft | 291 kts | 342° |
| 2026-05-09 04:12 | 21.19059 | -156.44412 | 8199 ft | 294 kts | 342° |
| 2026-05-09 04:12 | 21.21013 | -156.45058 | 8785 ft | 295 kts | 342° |
| 2026-05-09 04:13 | 21.22991 | -156.45714 | 9303 ft | 299 kts | 342° |
| 2026-05-09 04:13 | 21.24984 | -156.46376 | 9862 ft | 301 kts | 342° |
| 2026-05-09 04:13 | 21.27035 | -156.47058 | 10260 ft | 309 kts | 342° |
| 2026-05-09 04:13 | 21.29105 | -156.47747 | 10492 ft | 322 kts | 342° |
| 2026-05-09 04:14 | 21.31288 | -156.48473 | 10713 ft | 335 kts | 342° |
| 2026-05-09 04:14 | 21.33559 | -156.49230 | 10955 ft | 348 kts | 342° |
| 2026-05-09 04:14 | 21.35906 | -156.50011 | 11174 ft | 359 kts | 342° |
| 2026-05-09 04:14 | 21.38329 | -156.50817 | 11390 ft | 370 kts | 342° |
| 2026-05-09 04:15 | 21.40828 | -156.51649 | 11607 ft | 381 kts | 341° |
| 2026-05-09 04:15 | 21.43387 | -156.52502 | 11798 ft | 390 kts | 342° |
| 2026-05-09 04:15 | 21.46008 | -156.53374 | 11984 ft | 399 kts | 342° |
| 2026-05-09 04:15 | 21.48686 | -156.54267 | 12245 ft | 405 kts | 342° |
| 2026-05-09 04:16 | 21.51386 | -156.55166 | 12567 ft | 409 kts | 341° |
| 2026-05-09 04:16 | 21.54114 | -156.56076 | 12948 ft | 411 kts | 341° |
| 2026-05-09 04:16 | 21.56857 | -156.56989 | 13276 ft | 414 kts | 341° |
| 2026-05-09 04:16 | 21.59614 | -156.57910 | 13652 ft | 416 kts | 342° |
| 2026-05-09 04:17 | 21.62382 | -156.58834 | 13969 ft | 419 kts | 342° |
| 2026-05-09 04:17 | 21.65185 | -156.59717 | 14299 ft | 420 kts | 344° |
| 2026-05-09 04:17 | 21.68042 | -156.60440 | 14574 ft | 423 kts | 347° |
| 2026-05-09 04:17 | 21.70928 | -156.61077 | 14952 ft | 423 kts | 347° |
| 2026-05-09 04:18 | 21.73813 | -156.61693 | 15317 ft | 424 kts | 347° |
| 2026-05-09 04:18 | 21.76711 | -156.62323 | 15587 ft | 426 kts | 347° |
| 2026-05-09 04:18 | 21.79622 | -156.62979 | 15920 ft | 428 kts | 346° |
| 2026-05-09 04:18 | 21.82538 | -156.63655 | 16198 ft | 430 kts | 346° |
| 2026-05-09 04:19 | 21.85469 | -156.64347 | 16478 ft | 432 kts | 346° |
| 2026-05-09 04:19 | 21.88412 | -156.65050 | 16804 ft | 434 kts | 346° |
| 2026-05-09 04:19 | 21.91369 | -156.65760 | 17104 ft | 436 kts | 346° |
| 2026-05-09 04:19 | 21.94332 | -156.66472 | 17403 ft | 438 kts | 345° |
| 2026-05-09 04:20 | 21.97315 | -156.67188 | 17695 ft | 440 kts | 345° |
| 2026-05-09 04:20 | 22.00308 | -156.67906 | 18014 ft | 442 kts | 345° |
| 2026-05-09 04:20 | 22.03312 | -156.68626 | 18294 ft | 444 kts | 345° |
| 2026-05-09 04:20 | 22.06329 | -156.69349 | 18551 ft | 445 kts | 345° |
| 2026-05-09 04:21 | 22.09363 | -156.70077 | 18805 ft | 447 kts | 345° |
| 2026-05-09 04:21 | 22.12399 | -156.70805 | 19069 ft | 448 kts | 345° |
| 2026-05-09 04:21 | 22.18512 | -156.72272 | 19593 ft | 451 kts | 345° |
| 2026-05-09 04:22 | 22.21576 | -156.73007 | 19848 ft | 453 kts | 345° |
| 2026-05-09 04:22 | 22.24658 | -156.73748 | 20119 ft | 454 kts | 345° |
| 2026-05-09 04:22 | 22.27749 | -156.74491 | 20400 ft | 456 kts | 345° |
| 2026-05-09 04:22 | 22.30829 | -156.75232 | 20677 ft | 457 kts | 345° |
| 2026-05-09 04:23 | 22.33938 | -156.75979 | 20965 ft | 459 kts | 345° |
| 2026-05-09 04:23 | 22.37024 | -156.76722 | 21247 ft | 461 kts | 345° |
| 2026-05-09 04:23 | 22.40042 | -156.77449 | 21527 ft | 462 kts | 345° |
| 2026-05-09 04:23 | 22.43066 | -156.78036 | 21790 ft | 466 kts | 351° |
| 2026-05-09 04:24 | 22.46322 | -156.78110 | 22067 ft | 472 kts | 2° |
| 2026-05-09 04:24 | 22.49538 | -156.77577 | 22329 ft | 476 kts | 9° |
| 2026-05-09 04:24 | 22.52738 | -156.76785 | 22591 ft | 480 kts | 12° |
| 2026-05-09 04:24 | 22.55970 | -156.75856 | 22857 ft | 482 kts | 13° |
| 2026-05-09 04:25 | 22.59166 | -156.74879 | 23125 ft | 484 kts | 13° |
| 2026-05-09 04:25 | 22.62249 | -156.73924 | 23386 ft | 486 kts | 13° |
| 2026-05-09 04:25 | 22.65491 | -156.72926 | 23607 ft | 489 kts | 13° |
| 2026-05-09 04:25 | 22.68779 | -156.71929 | 23842 ft | 491 kts | 13° |
| 2026-05-09 04:26 | 22.72071 | -156.70944 | 24076 ft | 492 kts | 12° |
| 2026-05-09 04:26 | 22.75384 | -156.69960 | 24325 ft | 494 kts | 12° |
| 2026-05-09 04:26 | 22.78701 | -156.68986 | 24574 ft | 495 kts | 12° |
| 2026-05-09 04:26 | 22.82038 | -156.68014 | 24844 ft | 497 kts | 12° |
| 2026-05-09 04:27 | 22.85380 | -156.67040 | 25111 ft | 499 kts | 12° |
| 2026-05-09 04:27 | 22.88741 | -156.66061 | 25374 ft | 500 kts | 12° |
| 2026-05-09 04:27 | 22.92110 | -156.65077 | 25635 ft | 503 kts | 12° |
| 2026-05-09 04:27 | 22.95494 | -156.64089 | 25915 ft | 505 kts | 11° |
| 2026-05-09 04:28 | 22.98893 | -156.63095 | 26198 ft | 506 kts | 11° |
| 2026-05-09 04:28 | 23.02300 | -156.62097 | 26482 ft | 508 kts | 11° |
| 2026-05-09 04:28 | 23.05720 | -156.61095 | 26758 ft | 510 kts | 11° |
| 2026-05-09 04:28 | 23.09151 | -156.60089 | 27037 ft | 512 kts | 11° |
| 2026-05-09 04:29 | 23.12593 | -156.59080 | 27302 ft | 514 kts | 11° |
| 2026-05-09 04:29 | 23.16048 | -156.58066 | 27566 ft | 515 kts | 11° |
| 2026-05-09 04:29 | 23.19518 | -156.57048 | 27808 ft | 518 kts | 11° |
| 2026-05-09 04:29 | 23.23011 | -156.56023 | 27941 ft | 522 kts | 11° |
| 2026-05-09 04:30 | 23.26526 | -156.54991 | 28188 ft | 524 kts | 11° |
| 2026-05-09 04:30 | 23.30049 | -156.53955 | 28437 ft | 525 kts | 10° |
| 2026-05-09 04:30 | 23.33586 | -156.52913 | 28662 ft | 527 kts | 10° |
| 2026-05-09 04:30 | 23.37132 | -156.51869 | 28883 ft | 529 kts | 10° |
| 2026-05-09 04:31 | 23.40687 | -156.50822 | 29159 ft | 529 kts | 10° |
| 2026-05-09 04:31 | 23.44236 | -156.49774 | 29497 ft | 528 kts | 10° |
| 2026-05-09 04:31 | 23.47780 | -156.48728 | 29829 ft | 527 kts | 10° |
| 2026-05-09 04:31 | 23.51317 | -156.47683 | 30142 ft | 527 kts | 9° |
| 2026-05-09 04:32 | 23.54854 | -156.46638 | 30399 ft | 526 kts | 9° |
| 2026-05-09 04:32 | 23.58385 | -156.45596 | 30621 ft | 527 kts | 9° |
| 2026-05-09 04:32 | 23.61926 | -156.44549 | 30856 ft | 527 kts | 9° |
| 2026-05-09 04:32 | 23.65463 | -156.43504 | 31083 ft | 526 kts | 9° |
| 2026-05-09 04:33 | 23.68997 | -156.42458 | 31310 ft | 526 kts | 9° |
| 2026-05-09 04:33 | 23.72530 | -156.41413 | 31532 ft | 526 kts | 9° |
| 2026-05-09 04:33 | 23.76013 | -156.40382 | 31755 ft | 527 kts | 9° |
| 2026-05-09 04:33 | 23.79560 | -156.39331 | 31895 ft | 528 kts | 9° |
| 2026-05-09 04:34 | 23.83106 | -156.38280 | 32114 ft | 528 kts | 9° |
| 2026-05-09 04:34 | 23.86644 | -156.37230 | 32345 ft | 527 kts | 9° |
| 2026-05-09 04:34 | 23.90185 | -156.36178 | 32561 ft | 527 kts | 9° |
| 2026-05-09 04:34 | 23.93711 | -156.35130 | 32769 ft | 527 kts | 9° |
| 2026-05-09 04:35 | 23.97248 | -156.34079 | 32961 ft | 527 kts | 9° |
| 2026-05-09 04:35 | 24.00782 | -156.33029 | 33111 ft | 528 kts | 9° |
| 2026-05-09 04:35 | 24.04342 | -156.31973 | 33138 ft | 532 kts | 9° |
| 2026-05-09 04:36 | 24.11537 | -156.30016 | 33137 ft | 532 kts | 7° |
| 2026-05-09 04:36 | 24.18762 | -156.28229 | 33137 ft | 531 kts | 7° |
| 2026-05-09 04:37 | 24.25970 | -156.26433 | 33139 ft | 532 kts | 7° |
| 2026-05-09 04:37 | 24.33184 | -156.24600 | 33141 ft | 532 kts | 8° |
| 2026-05-09 04:38 | 24.40393 | -156.22752 | 33140 ft | 532 kts | 8° |
| 2026-05-09 04:38 | 24.47609 | -156.20898 | 33146 ft | 532 kts | 8° |
| 2026-05-09 04:39 | 24.54819 | -156.19044 | 33149 ft | 532 kts | 8° |
| 2026-05-09 04:39 | 24.62038 | -156.17187 | 33150 ft | 533 kts | 8° |
| 2026-05-09 04:40 | 24.69266 | -156.15327 | 33154 ft | 534 kts | 8° |
| 2026-05-09 04:40 | 24.76499 | -156.13462 | 33154 ft | 534 kts | 8° |
| 2026-05-09 04:41 | 24.83732 | -156.11594 | 33152 ft | 534 kts | 8° |
| 2026-05-09 04:41 | 24.90907 | -156.09739 | 33157 ft | 532 kts | 8° |
| 2026-05-09 04:42 | 24.96931 | -156.08179 | 33158 ft | 530 kts | 8° |
| 2026-05-09 04:42 | 25.05279 | -156.06016 | 33159 ft | 530 kts | 8° |
| 2026-05-09 04:43 | 25.12461 | -156.04154 | 33161 ft | 530 kts | 8° |
| 2026-05-09 04:43 | 25.18474 | -156.02592 | 33162 ft | 528 kts | 8° |
| 2026-05-09 04:44 | 25.25623 | -156.00732 | 33165 ft | 527 kts | 8° |
| 2026-05-09 04:44 | 25.32363 | -155.98978 | 33165 ft | 527 kts | 8° |
| 2026-05-09 04:45 | 25.39466 | -155.97127 | 33165 ft | 527 kts | 8° |
| 2026-05-09 04:45 | 25.46587 | -155.95270 | 33168 ft | 527 kts | 8° |
| 2026-05-09 04:46 | 25.53666 | -155.93421 | 33169 ft | 528 kts | 8° |
| 2026-05-09 04:46 | 25.60809 | -155.91553 | 33170 ft | 528 kts | 8° |
| 2026-05-09 04:47 | 25.67958 | -155.89681 | 33185 ft | 528 kts | 8° |
| 2026-05-09 04:47 | 25.75119 | -155.87804 | 33179 ft | 529 kts | 8° |
| 2026-05-09 04:48 | 25.82280 | -155.85924 | 33177 ft | 529 kts | 8° |
| 2026-05-09 04:48 | 25.89451 | -155.84039 | 33181 ft | 529 kts | 8° |
| 2026-05-09 04:49 | 25.96422 | -155.82204 | 33192 ft | 529 kts | 8° |
| 2026-05-09 04:49 | 26.03580 | -155.80318 | 33173 ft | 528 kts | 8° |
| 2026-05-09 04:50 | 26.10722 | -155.78434 | 33176 ft | 528 kts | 8° |
| 2026-05-09 04:50 | 26.17872 | -155.76545 | 33181 ft | 528 kts | 8° |
| 2026-05-09 04:51 | 26.25017 | -155.74656 | 33187 ft | 528 kts | 8° |
| 2026-05-09 04:51 | 26.32167 | -155.72762 | 33185 ft | 528 kts | 8° |
| 2026-05-09 04:52 | 26.39317 | -155.70866 | 33196 ft | 528 kts | 8° |
| 2026-05-09 04:52 | 26.46457 | -155.68971 | 33183 ft | 528 kts | 9° |
| 2026-05-09 04:53 | 26.53608 | -155.67070 | 33190 ft | 527 kts | 9° |
| 2026-05-09 04:53 | 26.60736 | -155.65172 | 33194 ft | 526 kts | 9° |
| 2026-05-09 04:54 | 26.67862 | -155.63273 | 33199 ft | 527 kts | 9° |
| 2026-05-09 04:54 | 26.74936 | -155.61386 | 33216 ft | 527 kts | 9° |
| 2026-05-09 04:55 | 26.82062 | -155.59481 | 33203 ft | 526 kts | 9° |
| 2026-05-09 04:55 | 26.89175 | -155.57578 | 33200 ft | 526 kts | 9° |
| 2026-05-09 04:56 | 26.96292 | -155.55672 | 33202 ft | 526 kts | 9° |
| 2026-05-09 04:56 | 27.03406 | -155.53764 | 33212 ft | 526 kts | 9° |
| 2026-05-09 04:57 | 27.10517 | -155.51854 | 33205 ft | 525 kts | 9° |
| 2026-05-09 04:57 | 27.17627 | -155.49942 | 33208 ft | 525 kts | 9° |
| 2026-05-09 04:58 | 27.24738 | -155.48027 | 33210 ft | 525 kts | 9° |
| 2026-05-09 04:58 | 27.31850 | -155.46109 | 33209 ft | 526 kts | 9° |
| 2026-05-09 04:59 | 27.38973 | -155.44186 | 33208 ft | 527 kts | 9° |
| 2026-05-09 04:59 | 27.46097 | -155.42260 | 33210 ft | 526 kts | 9° |
| 2026-05-09 05:00 | 27.53174 | -155.40344 | 33211 ft | 526 kts | 9° |
| 2026-05-09 05:00 | 27.60306 | -155.38411 | 33217 ft | 528 kts | 9° |
| 2026-05-09 05:01 | 27.67451 | -155.36472 | 33215 ft | 528 kts | 9° |
| 2026-05-09 05:01 | 27.74595 | -155.34530 | 33214 ft | 528 kts | 9° |
| 2026-05-09 05:02 | 27.81737 | -155.32585 | 33208 ft | 528 kts | 9° |
| 2026-05-09 05:02 | 27.88883 | -155.30638 | 33213 ft | 528 kts | 9° |
| 2026-05-09 05:03 | 27.96032 | -155.28687 | 33223 ft | 529 kts | 9° |
| 2026-05-09 05:03 | 28.03186 | -155.26732 | 33220 ft | 529 kts | 9° |
| 2026-05-09 05:04 | 28.10335 | -155.24776 | 33223 ft | 529 kts | 9° |
| 2026-05-09 05:04 | 28.17497 | -155.22813 | 33218 ft | 530 kts | 9° |
| 2026-05-09 05:05 | 28.24661 | -155.20847 | 33219 ft | 530 kts | 9° |
| 2026-05-09 05:05 | 28.31825 | -155.18878 | 33238 ft | 530 kts | 9° |
| 2026-05-09 05:06 | 28.38996 | -155.16905 | 33222 ft | 531 kts | 9° |
| 2026-05-09 05:06 | 28.46175 | -155.14927 | 33224 ft | 531 kts | 9° |
| 2026-05-09 05:07 | 28.53352 | -155.12946 | 33225 ft | 531 kts | 9° |
| 2026-05-09 05:07 | 28.60522 | -155.10965 | 33225 ft | 531 kts | 9° |
| 2026-05-09 05:08 | 28.67706 | -155.08977 | 33228 ft | 531 kts | 9° |
| 2026-05-09 05:08 | 28.74840 | -155.07000 | 33227 ft | 531 kts | 9° |
| 2026-05-09 05:09 | 28.82023 | -155.05007 | 33223 ft | 531 kts | 9° |
| 2026-05-09 05:09 | 28.89205 | -155.03011 | 33225 ft | 531 kts | 9° |
| 2026-05-09 05:10 | 28.96386 | -155.01014 | 33226 ft | 531 kts | 10° |
| 2026-05-09 05:10 | 29.03642 | -155.00041 | 33229 ft | 522 kts | 357° |
| 2026-05-09 05:11 | 29.10904 | -154.99936 | 33231 ft | 522 kts | 355° |
| 2026-05-09 05:11 | 29.18171 | -154.99964 | 33230 ft | 522 kts | 355° |
| 2026-05-09 05:12 | 29.25439 | -154.99993 | 33230 ft | 522 kts | 355° |
| 2026-05-09 05:12 | 29.32704 | -155.00002 | 33230 ft | 522 kts | 355° |
| 2026-05-09 05:13 | 29.39974 | -155.00002 | 33230 ft | 523 kts | 355° |
| 2026-05-09 05:13 | 29.47251 | -155.00001 | 33230 ft | 523 kts | 355° |
| 2026-05-09 05:14 | 29.54528 | -155.00000 | 33233 ft | 523 kts | 355° |
| 2026-05-09 05:14 | 29.61803 | -155.00000 | 33241 ft | 523 kts | 355° |
| 2026-05-09 05:15 | 29.69081 | -155.00000 | 33235 ft | 523 kts | 355° |
| 2026-05-09 05:15 | 29.76362 | -155.00000 | 33233 ft | 523 kts | 355° |
| 2026-05-09 05:16 | 29.83640 | -155.00000 | 33236 ft | 523 kts | 355° |
| 2026-05-09 05:16 | 29.90878 | -155.00000 | 33240 ft | 523 kts | 355° |
| 2026-05-09 05:17 | 29.98213 | -155.00000 | 33234 ft | 524 kts | 355° |
| 2026-05-09 05:17 | 30.05455 | -155.00000 | 33238 ft | 524 kts | 355° |
| 2026-05-09 05:18 | 30.12736 | -155.00000 | 33249 ft | 524 kts | 354° |
| 2026-05-09 05:18 | 30.20028 | -155.00000 | 33239 ft | 524 kts | 354° |
| 2026-05-09 05:19 | 30.27329 | -155.00000 | 33248 ft | 524 kts | 354° |
| 2026-05-09 05:19 | 30.34622 | -155.00000 | 33241 ft | 524 kts | 354° |
| 2026-05-09 05:20 | 30.41918 | -155.00000 | 33244 ft | 525 kts | 354° |
| 2026-05-09 05:20 | 30.49225 | -155.00001 | 33244 ft | 525 kts | 354° |
| 2026-05-09 05:21 | 30.56536 | -155.00001 | 33246 ft | 525 kts | 354° |
| 2026-05-09 05:21 | 30.63840 | -155.00000 | 33267 ft | 525 kts | 354° |
| 2026-05-09 05:22 | 30.71162 | -155.00001 | 33246 ft | 526 kts | 354° |
| 2026-05-09 05:22 | 30.78487 | -155.00001 | 33246 ft | 526 kts | 354° |
| 2026-05-09 05:23 | 30.85813 | -155.00001 | 33246 ft | 526 kts | 354° |
| 2026-05-09 05:23 | 30.93139 | -155.00001 | 33249 ft | 527 kts | 354° |
| 2026-05-09 05:24 | 31.00483 | -155.00001 | 33249 ft | 528 kts | 354° |
| 2026-05-09 05:24 | 31.07828 | -155.00000 | 33246 ft | 528 kts | 354° |
| 2026-05-09 05:25 | 31.15178 | -155.00000 | 33266 ft | 528 kts | 354° |
| 2026-05-09 05:25 | 31.26201 | -155.00000 | 33246 ft | 529 kts | 354° |
| 2026-05-09 05:26 | 31.33556 | -155.00000 | 33250 ft | 528 kts | 354° |
| 2026-05-09 05:26 | 31.40911 | -155.00000 | 33248 ft | 528 kts | 354° |
| 2026-05-09 05:27 | 31.48263 | -155.00000 | 33246 ft | 528 kts | 354° |
| 2026-05-09 05:27 | 31.55614 | -155.00000 | 33246 ft | 528 kts | 354° |
| 2026-05-09 05:28 | 31.62921 | -155.00000 | 33249 ft | 528 kts | 354° |
| 2026-05-09 05:28 | 31.70273 | -154.99999 | 33245 ft | 528 kts | 353° |
| 2026-05-09 05:29 | 31.77619 | -155.00000 | 33246 ft | 528 kts | 353° |
| 2026-05-09 05:29 | 31.84972 | -155.00000 | 33247 ft | 528 kts | 353° |
| 2026-05-09 05:30 | 31.92325 | -154.99999 | 33258 ft | 528 kts | 353° |
| 2026-05-09 05:30 | 31.99677 | -155.00000 | 33246 ft | 528 kts | 353° |
| 2026-05-09 05:31 | 32.07035 | -155.00000 | 33244 ft | 528 kts | 353° |
| 2026-05-09 05:31 | 32.13146 | -155.00000 | 33247 ft | 528 kts | 353° |
| 2026-05-09 05:32 | 32.20496 | -154.99999 | 33243 ft | 528 kts | 353° |
| 2026-05-09 05:32 | 32.27847 | -155.00000 | 33243 ft | 528 kts | 353° |
| 2026-05-09 05:33 | 32.35203 | -155.00000 | 33241 ft | 528 kts | 353° |
| 2026-05-09 05:33 | 32.42560 | -155.00000 | 33245 ft | 529 kts | 352° |
| 2026-05-09 05:34 | 32.49921 | -155.00001 | 33243 ft | 529 kts | 352° |
| 2026-05-09 05:34 | 32.57281 | -155.00001 | 33236 ft | 529 kts | 353° |
| 2026-05-09 05:35 | 32.64647 | -155.00000 | 33263 ft | 529 kts | 352° |
| 2026-05-09 05:35 | 32.72020 | -155.00002 | 33239 ft | 531 kts | 352° |
| 2026-05-09 05:36 | 32.79409 | -155.00002 | 33240 ft | 531 kts | 352° |
| 2026-05-09 05:36 | 32.86797 | -155.00002 | 33237 ft | 531 kts | 352° |
| 2026-05-09 05:37 | 32.94191 | -155.00003 | 33235 ft | 532 kts | 352° |
| 2026-05-09 05:37 | 33.01554 | -155.00004 | 33236 ft | 533 kts | 352° |
| 2026-05-09 05:38 | 33.08971 | -155.00002 | 33236 ft | 533 kts | 352° |
| 2026-05-09 05:38 | 33.16390 | -155.00001 | 33238 ft | 534 kts | 352° |
| 2026-05-09 05:39 | 33.23829 | -155.00002 | 33233 ft | 535 kts | 352° |
| 2026-05-09 05:39 | 33.31272 | -155.00002 | 33233 ft | 535 kts | 352° |
| 2026-05-09 05:40 | 33.38709 | -155.00001 | 33249 ft | 535 kts | 351° |
| 2026-05-09 05:40 | 33.46176 | -155.00002 | 33224 ft | 537 kts | 351° |
| 2026-05-09 05:41 | 33.53647 | -155.00002 | 33230 ft | 537 kts | 351° |
| 2026-05-09 05:41 | 33.61117 | -155.00001 | 33231 ft | 537 kts | 351° |
| 2026-05-09 05:42 | 33.68588 | -155.00001 | 33229 ft | 537 kts | 351° |
| 2026-05-09 05:42 | 33.76056 | -155.00001 | 33230 ft | 537 kts | 351° |
| 2026-05-09 05:43 | 33.83537 | -155.00001 | 33224 ft | 537 kts | 351° |
| 2026-05-09 05:43 | 33.91010 | -155.00001 | 33222 ft | 537 kts | 351° |
| 2026-05-09 05:44 | 33.98485 | -155.00001 | 33224 ft | 537 kts | 351° |
| 2026-05-09 05:44 | 34.05961 | -155.00001 | 33221 ft | 537 kts | 351° |
| 2026-05-09 05:45 | 34.13433 | -155.00001 | 33224 ft | 536 kts | 351° |
| 2026-05-09 05:45 | 34.20893 | -154.99999 | 33224 ft | 535 kts | 351° |
| 2026-05-09 05:46 | 34.28337 | -154.99999 | 33216 ft | 535 kts | 351° |
| 2026-05-09 05:46 | 34.35735 | -154.99999 | 33221 ft | 534 kts | 351° |
| 2026-05-09 05:47 | 34.43149 | -154.99998 | 33216 ft | 532 kts | 351° |
| 2026-05-09 05:47 | 34.50551 | -154.99999 | 33214 ft | 532 kts | 351° |
| 2026-05-09 05:48 | 34.57952 | -155.00001 | 33228 ft | 531 kts | 351° |
| 2026-05-09 05:48 | 34.65308 | -154.99997 | 33211 ft | 527 kts | 351° |
| 2026-05-09 05:49 | 34.72634 | -154.99997 | 33212 ft | 526 kts | 351° |
| 2026-05-09 05:49 | 34.79957 | -155.00000 | 33244 ft | 526 kts | 352° |
| 2026-05-09 05:50 | 34.87266 | -155.00000 | 33209 ft | 524 kts | 352° |
| 2026-05-09 05:50 | 34.94551 | -155.00000 | 33209 ft | 524 kts | 352° |
| 2026-05-09 05:51 | 35.01869 | -154.99592 | 33209 ft | 533 kts | 359° |
| 2026-05-09 05:51 | 35.09217 | -154.98333 | 33204 ft | 534 kts | 1° |
| 2026-05-09 05:52 | 35.16562 | -154.96933 | 33191 ft | 535 kts | 1° |
| 2026-05-09 05:52 | 35.23889 | -154.95531 | 33199 ft | 537 kts | 1° |
| 2026-05-09 05:53 | 35.31271 | -154.94129 | 33197 ft | 536 kts | 1° |
| 2026-05-09 05:53 | 35.38642 | -154.92735 | 33189 ft | 536 kts | 1° |
| 2026-05-09 05:54 | 35.46013 | -154.91343 | 33193 ft | 536 kts | 1° |
| 2026-05-09 05:54 | 35.53382 | -154.89947 | 33190 ft | 535 kts | 0° |
| 2026-05-09 05:55 | 35.60738 | -154.88551 | 33183 ft | 535 kts | 0° |
| 2026-05-09 05:55 | 35.68091 | -154.87153 | 33181 ft | 535 kts | 0° |
| 2026-05-09 05:56 | 35.75442 | -154.85753 | 33178 ft | 535 kts | 0° |
| 2026-05-09 05:56 | 35.82792 | -154.84350 | 33175 ft | 534 kts | 0° |
| 2026-05-09 05:57 | 35.90150 | -154.82944 | 33175 ft | 535 kts | 0° |
| 2026-05-09 05:57 | 35.97494 | -154.81537 | 33167 ft | 534 kts | 0° |
| 2026-05-09 05:58 | 36.04838 | -154.80126 | 33167 ft | 534 kts | 0° |
| 2026-05-09 05:58 | 36.12188 | -154.78713 | 33167 ft | 534 kts | 0° |
| 2026-05-09 05:59 | 36.19524 | -154.77299 | 33162 ft | 534 kts | 0° |
| 2026-05-09 05:59 | 36.26869 | -154.75882 | 33159 ft | 534 kts | 0° |
| 2026-05-09 06:00 | 36.34213 | -154.74461 | 33190 ft | 534 kts | 0° |
| 2026-05-09 06:00 | 36.41552 | -154.73038 | 33157 ft | 534 kts | 0° |
| 2026-05-09 06:01 | 36.48843 | -154.71622 | 33149 ft | 533 kts | 0° |
| 2026-05-09 06:01 | 36.56168 | -154.70198 | 33211 ft | 533 kts | 0° |
| 2026-05-09 06:02 | 36.63490 | -154.68770 | 33140 ft | 532 kts | 0° |
| 2026-05-09 06:02 | 36.70815 | -154.67339 | 33140 ft | 532 kts | 0° |
| 2026-05-09 06:03 | 36.78132 | -154.65909 | 33160 ft | 533 kts | 0° |
| 2026-05-09 06:03 | 36.85447 | -154.64475 | 33131 ft | 532 kts | 0° |
| 2026-05-09 06:04 | 36.92762 | -154.63038 | 33138 ft | 532 kts | 0° |
| 2026-05-09 06:04 | 37.00076 | -154.61598 | 33157 ft | 532 kts | 359° |
| 2026-05-09 06:05 | 37.07367 | -154.60158 | 33124 ft | 530 kts | 359° |
| 2026-05-09 06:05 | 37.14649 | -154.58721 | 33122 ft | 530 kts | 359° |
| 2026-05-09 06:06 | 37.21931 | -154.57282 | 33125 ft | 530 kts | 359° |
| 2026-05-09 06:06 | 37.29229 | -154.55836 | 33113 ft | 531 kts | 359° |
| 2026-05-09 06:07 | 37.36521 | -154.54387 | 33112 ft | 531 kts | 359° |
| 2026-05-09 06:07 | 37.43823 | -154.52932 | 33114 ft | 531 kts | 359° |
| 2026-05-09 06:08 | 37.51128 | -154.51475 | 33114 ft | 532 kts | 359° |
| 2026-05-09 06:08 | 37.58444 | -154.50012 | 33106 ft | 532 kts | 359° |
| 2026-05-09 06:09 | 37.65704 | -154.48558 | 33103 ft | 531 kts | 359° |
| 2026-05-09 06:09 | 37.73008 | -154.47091 | 33099 ft | 531 kts | 359° |
| 2026-05-09 06:10 | 37.80312 | -154.45623 | 33096 ft | 531 kts | 359° |
| 2026-05-09 06:10 | 37.87606 | -154.44151 | 33093 ft | 530 kts | 359° |
| 2026-05-09 06:11 | 37.94882 | -154.42681 | 33089 ft | 529 kts | 359° |
| 2026-05-09 06:11 | 38.02154 | -154.41211 | 33136 ft | 529 kts | 359° |
| 2026-05-09 06:12 | 38.09409 | -154.39740 | 33088 ft | 527 kts | 360° |
| 2026-05-09 06:12 | 38.16643 | -154.38269 | 33088 ft | 526 kts | 360° |
| 2026-05-09 06:13 | 38.23875 | -154.36799 | 33086 ft | 526 kts | 360° |
| 2026-05-09 06:13 | 38.31110 | -154.35320 | 33073 ft | 527 kts | 359° |
| 2026-05-09 06:14 | 38.38390 | -154.33836 | 33081 ft | 531 kts | 359° |
| 2026-05-09 06:14 | 38.45695 | -154.32345 | 33086 ft | 531 kts | 360° |
| 2026-05-09 06:15 | 38.52917 | -154.30858 | 33073 ft | 528 kts | 360° |
| 2026-05-09 06:15 | 38.60172 | -154.29365 | 33066 ft | 528 kts | 360° |
| 2026-05-09 06:16 | 38.67422 | -154.27874 | 33065 ft | 526 kts | 0° |
| 2026-05-09 06:16 | 38.74637 | -154.26383 | 33061 ft | 525 kts | 0° |
| 2026-05-09 06:17 | 38.81845 | -154.24893 | 33062 ft | 525 kts | 0° |